Etusivu
METAR-TAF:

METAR-TAF

Lentoasemat :

Ljungbyhed, Ruotsi

Leveyspiiri: 56-04N, Pituuspiiri: 013-12E, korkeus merenpinnasta: 43 m

Tämänhetkinen sää

Tämä raportti tehtiin 37 minuuttia sitten, kello 14.50 UTC
Tuuli 16 kn lännestä/lounaasta
Lämpötila 24°C
Kosteus 57%
Ilmanpaine 1013 hPa
Näkyvyys 10 km tai enemmän

METAR: ESTL 201450Z AUTO 24016KT 9999 FEW034/// SCT045/// BKN068/// 24/15 Q1013

Aika: 17:27 (15:27 UTC)

Sääennuste

Tämä raportti tehtiin 4 tuntia ja 19 minuuttia sitten, kello 11.08 UTC
Ennuste voimassa 20. päivästä klo 12 UTC - 20. päivään klo 15 UTC
Tuuli 15 kn lounaasta
Näkyvyys 10 km tai enemmän
Hajonneita pilviä 3000 ft:n korkeudessa
Ajoittain
20. päivästä klo 12 UTC - 20. päivään klo 15 UTC
Tuuli 18 kn lännestä/lounaasta puuskistuen 30 kn:hen

TAF: ESTL 201108Z 2012/2015 23015KT 9999 BKN030 TEMPO 2012/2015 24018G30KT

Säähavainnot ja -ennusteet yli 4000 lentoasemalta (METAR- ja TAF-raportit).

Käytössä olevat sääasemat on merkitty karttaan keltaisilla ja punaisilla pisteillä.

Aseta hiiri pisteen päälle nähdäksesi sääaseman nimen.

Klikkaa sitten nähdäksesi säähavainnot ja -ennusteet.

Kartan vaihtaminen: klikkaa mustalla rastilla varustettuja vihreitä pisteitä, niin voit zoomata sisään; viivalla varustettua vihreää pistettä, niin voit zoomata ulos tai vihreitä nuolia, niin pääset viereisille kartoille.


METAR-TAF: